sensor_id;sensor_type;location;lat;lon;timestamp;P1;durP1;ratioP1;P2;durP2;ratioP2
14526;SDS011;7350;51.208;4.238;2023-04-08T00:01:35;3.65;;;1.38;;
14526;SDS011;7350;51.208;4.238;2023-04-08T00:04:02;2.90;;;1.35;;
14526;SDS011;7350;51.208;4.238;2023-04-08T00:06:29;4.20;;;1.50;;
14526;SDS011;7350;51.208;4.238;2023-04-08T00:08:56;2.88;;;1.30;;
14526;SDS011;7350;51.208;4.238;2023-04-08T00:11:23;2.58;;;1.38;;
14526;SDS011;7350;51.208;4.238;2023-04-08T00:13:51;4.10;;;1.50;;
14526;SDS011;7350;51.208;4.238;2023-04-08T00:16:18;2.88;;;1.50;;
14526;SDS011;7350;51.208;4.238;2023-04-08T00:18:45;4.07;;;1.30;;
14526;SDS011;7350;51.208;4.238;2023-04-08T00:21:13;4.63;;;1.75;;
14526;SDS011;7350;51.208;4.238;2023-04-08T00:23:42;3.78;;;1.63;;
14526;SDS011;7350;51.208;4.238;2023-04-08T00:26:09;3.22;;;1.48;;
14526;SDS011;7350;51.208;4.238;2023-04-08T00:28:36;2.92;;;1.45;;
14526;SDS011;7350;51.208;4.238;2023-04-08T00:31:04;4.10;;;1.88;;
14526;SDS011;7350;51.208;4.238;2023-04-08T00:33:31;3.85;;;1.60;;
14526;SDS011;7350;51.208;4.238;2023-04-08T00:35:58;2.33;;;1.67;;
14526;SDS011;7350;51.208;4.238;2023-04-08T00:38:25;5.05;;;1.80;;
14526;SDS011;7350;51.208;4.238;2023-04-08T00:40:52;3.97;;;1.77;;
14526;SDS011;7350;51.208;4.238;2023-04-08T00:43:19;4.05;;;1.63;;
14526;SDS011;7350;51.208;4.238;2023-04-08T00:45:46;3.08;;;1.25;;
14526;SDS011;7350;51.208;4.238;2023-04-08T00:48:14;4.43;;;1.80;;
14526;SDS011;7350;51.208;4.238;2023-04-08T00:50:41;4.30;;;2.05;;
14526;SDS011;7350;51.208;4.238;2023-04-08T00:53:10;2.42;;;1.70;;
14526;SDS011;7350;51.208;4.238;2023-04-08T00:55:37;3.60;;;1.48;;
14526;SDS011;7350;51.208;4.238;2023-04-08T00:58:04;4.90;;;2.00;;
14526;SDS011;7350;51.208;4.238;2023-04-08T01:00:31;3.38;;;1.60;;
14526;SDS011;7350;51.208;4.238;2023-04-08T01:03:00;3.20;;;1.63;;
14526;SDS011;7350;51.208;4.238;2023-04-08T01:05:38;2.88;;;1.58;;
14526;SDS011;7350;51.208;4.238;2023-04-08T01:08:15;3.78;;;1.80;;
14526;SDS011;7350;51.208;4.238;2023-04-08T01:10:43;3.80;;;1.90;;
14526;SDS011;7350;51.208;4.238;2023-04-08T01:13:16;4.35;;;1.70;;
14526;SDS011;7350;51.208;4.238;2023-04-08T01:15:44;3.05;;;1.38;;
14526;SDS011;7350;51.208;4.238;2023-04-08T01:18:12;2.78;;;1.40;;
14526;SDS011;7350;51.208;4.238;2023-04-08T01:20:42;5.22;;;1.63;;
14526;SDS011;7350;51.208;4.238;2023-04-08T01:23:12;3.72;;;1.60;;
14526;SDS011;7350;51.208;4.238;2023-04-08T01:25:47;3.65;;;1.90;;
14526;SDS011;7350;51.208;4.238;2023-04-08T01:28:15;4.28;;;1.73;;
14526;SDS011;7350;51.208;4.238;2023-04-08T01:30:44;4.32;;;1.85;;
14526;SDS011;7350;51.208;4.238;2023-04-08T01:33:13;3.10;;;1.67;;
14526;SDS011;7350;51.208;4.238;2023-04-08T01:35:41;3.83;;;1.75;;
14526;SDS011;7350;51.208;4.238;2023-04-08T01:38:10;3.15;;;1.60;;
14526;SDS011;7350;51.208;4.238;2023-04-08T01:40:40;2.28;;;1.50;;
14526;SDS011;7350;51.208;4.238;2023-04-08T01:43:09;4.25;;;1.73;;
14526;SDS011;7350;51.208;4.238;2023-04-08T01:45:39;4.15;;;1.67;;
14526;SDS011;7350;51.208;4.238;2023-04-08T01:48:06;3.13;;;1.88;;
14526;SDS011;7350;51.208;4.238;2023-04-08T01:50:34;4.25;;;1.85;;
14526;SDS011;7350;51.208;4.238;2023-04-08T01:53:01;3.95;;;1.77;;
14526;SDS011;7350;51.208;4.238;2023-04-08T01:55:31;3.20;;;1.58;;
14526;SDS011;7350;51.208;4.238;2023-04-08T01:57:59;3.90;;;1.70;;
14526;SDS011;7350;51.208;4.238;2023-04-08T02:00:28;3.95;;;1.90;;
14526;SDS011;7350;51.208;4.238;2023-04-08T02:02:57;3.67;;;2.20;;
14526;SDS011;7350;51.208;4.238;2023-04-08T02:05:24;3.33;;;1.75;;
14526;SDS011;7350;51.208;4.238;2023-04-08T02:07:51;2.70;;;1.60;;
14526;SDS011;7350;51.208;4.238;2023-04-08T02:10:18;3.22;;;1.63;;
14526;SDS011;7350;51.208;4.238;2023-04-08T02:12:46;4.30;;;1.80;;
14526;SDS011;7350;51.208;4.238;2023-04-08T02:15:13;4.72;;;1.77;;
14526;SDS011;7350;51.208;4.238;2023-04-08T02:17:43;3.80;;;2.00;;
14526;SDS011;7350;51.208;4.238;2023-04-08T02:20:15;4.13;;;2.13;;
14526;SDS011;7350;51.208;4.238;2023-04-08T02:22:46;4.53;;;1.90;;
14526;SDS011;7350;51.208;4.238;2023-04-08T02:25:15;3.83;;;1.77;;
14526;SDS011;7350;51.208;4.238;2023-04-08T02:27:46;3.17;;;1.80;;
14526;SDS011;7350;51.208;4.238;2023-04-08T02:30:14;3.75;;;1.92;;
14526;SDS011;7350;51.208;4.238;2023-04-08T02:32:44;4.60;;;1.90;;
14526;SDS011;7350;51.208;4.238;2023-04-08T02:35:12;4.38;;;1.95;;
14526;SDS011;7350;51.208;4.238;2023-04-08T02:37:41;3.58;;;1.98;;
14526;SDS011;7350;51.208;4.238;2023-04-08T02:40:21;4.55;;;1.98;;
14526;SDS011;7350;51.208;4.238;2023-04-08T02:42:49;3.92;;;1.88;;
14526;SDS011;7350;51.208;4.238;2023-04-08T02:45:16;3.00;;;2.00;;
14526;SDS011;7350;51.208;4.238;2023-04-08T02:47:45;2.72;;;1.90;;
14526;SDS011;7350;51.208;4.238;2023-04-08T02:50:12;4.45;;;1.90;;
14526;SDS011;7350;51.208;4.238;2023-04-08T02:52:39;4.15;;;1.95;;
14526;SDS011;7350;51.208;4.238;2023-04-08T02:55:07;4.22;;;2.00;;
14526;SDS011;7350;51.208;4.238;2023-04-08T02:57:35;3.05;;;2.13;;
14526;SDS011;7350;51.208;4.238;2023-04-08T03:00:02;3.40;;;1.80;;
14526;SDS011;7350;51.208;4.238;2023-04-08T03:02:30;4.82;;;1.90;;
14526;SDS011;7350;51.208;4.238;2023-04-08T03:04:58;3.63;;;2.20;;
14526;SDS011;7350;51.208;4.238;2023-04-08T03:07:25;3.35;;;1.95;;
14526;SDS011;7350;51.208;4.238;2023-04-08T03:09:52;3.08;;;1.83;;
14526;SDS011;7350;51.208;4.238;2023-04-08T03:12:20;2.90;;;1.92;;
14526;SDS011;7350;51.208;4.238;2023-04-08T03:14:47;4.35;;;2.10;;
14526;SDS011;7350;51.208;4.238;2023-04-08T03:17:14;5.88;;;2.22;;
14526;SDS011;7350;51.208;4.238;2023-04-08T03:19:41;3.67;;;2.10;;
14526;SDS011;7350;51.208;4.238;2023-04-08T03:22:09;2.72;;;2.20;;
14526;SDS011;7350;51.208;4.238;2023-04-08T03:24:36;3.65;;;2.40;;
14526;SDS011;7350;51.208;4.238;2023-04-08T03:27:03;4.13;;;2.28;;
14526;SDS011;7350;51.208;4.238;2023-04-08T03:29:30;2.92;;;1.67;;
14526;SDS011;7350;51.208;4.238;2023-04-08T03:31:57;4.00;;;2.45;;
14526;SDS011;7350;51.208;4.238;2023-04-08T03:34:24;2.47;;;2.00;;
14526;SDS011;7350;51.208;4.238;2023-04-08T03:36:51;2.70;;;2.08;;
14526;SDS011;7350;51.208;4.238;2023-04-08T03:39:19;4.70;;;2.60;;
14526;SDS011;7350;51.208;4.238;2023-04-08T03:41:46;3.70;;;2.22;;
14526;SDS011;7350;51.208;4.238;2023-04-08T03:44:13;5.93;;;2.58;;
14526;SDS011;7350;51.208;4.238;2023-04-08T03:46:40;4.38;;;2.35;;
14526;SDS011;7350;51.208;4.238;2023-04-08T03:49:07;5.00;;;2.58;;
14526;SDS011;7350;51.208;4.238;2023-04-08T03:51:34;3.72;;;2.20;;
14526;SDS011;7350;51.208;4.238;2023-04-08T03:54:01;4.10;;;2.25;;
14526;SDS011;7350;51.208;4.238;2023-04-08T03:56:29;2.95;;;2.15;;
14526;SDS011;7350;51.208;4.238;2023-04-08T03:58:56;4.50;;;2.08;;
14526;SDS011;7350;51.208;4.238;2023-04-08T04:01:23;3.40;;;2.17;;
14526;SDS011;7350;51.208;4.238;2023-04-08T04:03:50;3.28;;;2.00;;
14526;SDS011;7350;51.208;4.238;2023-04-08T04:06:17;3.58;;;2.33;;
14526;SDS011;7350;51.208;4.238;2023-04-08T04:08:44;3.75;;;2.35;;
14526;SDS011;7350;51.208;4.238;2023-04-08T04:11:11;4.30;;;2.10;;
14526;SDS011;7350;51.208;4.238;2023-04-08T04:13:39;3.92;;;2.40;;
14526;SDS011;7350;51.208;4.238;2023-04-08T04:16:06;4.57;;;2.30;;
14526;SDS011;7350;51.208;4.238;2023-04-08T04:18:33;4.38;;;2.90;;
14526;SDS011;7350;51.208;4.238;2023-04-08T04:21:03;4.45;;;2.65;;
14526;SDS011;7350;51.208;4.238;2023-04-08T04:23:30;4.22;;;2.45;;
14526;SDS011;7350;51.208;4.238;2023-04-08T04:25:57;4.20;;;2.50;;
14526;SDS011;7350;51.208;4.238;2023-04-08T04:28:24;4.53;;;2.70;;
14526;SDS011;7350;51.208;4.238;2023-04-08T04:30:53;4.35;;;2.30;;
14526;SDS011;7350;51.208;4.238;2023-04-08T04:33:20;3.72;;;2.65;;
14526;SDS011;7350;51.208;4.238;2023-04-08T04:35:47;4.40;;;2.60;;
14526;SDS011;7350;51.208;4.238;2023-04-08T04:38:14;4.55;;;2.63;;
14526;SDS011;7350;51.208;4.238;2023-04-08T04:40:41;3.28;;;2.28;;
14526;SDS011;7350;51.208;4.238;2023-04-08T04:43:08;3.75;;;2.92;;
14526;SDS011;7350;51.208;4.238;2023-04-08T04:45:35;4.60;;;2.75;;
14526;SDS011;7350;51.208;4.238;2023-04-08T04:48:03;4.07;;;2.58;;
14526;SDS011;7350;51.208;4.238;2023-04-08T04:50:31;3.67;;;2.80;;
14526;SDS011;7350;51.208;4.238;2023-04-08T04:52:57;4.15;;;2.60;;
14526;SDS011;7350;51.208;4.238;2023-04-08T04:55:24;3.22;;;2.38;;
14526;SDS011;7350;51.208;4.238;2023-04-08T04:57:51;3.60;;;2.72;;
14526;SDS011;7350;51.208;4.238;2023-04-08T05:00:18;3.63;;;2.50;;
14526;SDS011;7350;51.208;4.238;2023-04-08T05:02:45;3.72;;;2.28;;
14526;SDS011;7350;51.208;4.238;2023-04-08T05:05:14;4.03;;;2.33;;
14526;SDS011;7350;51.208;4.238;2023-04-08T05:07:41;4.47;;;2.10;;
14526;SDS011;7350;51.208;4.238;2023-04-08T05:10:08;2.80;;;1.80;;
14526;SDS011;7350;51.208;4.238;2023-04-08T05:12:35;3.28;;;2.30;;
14526;SDS011;7350;51.208;4.238;2023-04-08T05:15:03;2.78;;;1.85;;
14526;SDS011;7350;51.208;4.238;2023-04-08T05:17:30;3.47;;;1.92;;
14526;SDS011;7350;51.208;4.238;2023-04-08T05:19:57;2.75;;;1.70;;
14526;SDS011;7350;51.208;4.238;2023-04-08T05:22:26;4.20;;;1.92;;
14526;SDS011;7350;51.208;4.238;2023-04-08T05:24:53;3.63;;;2.15;;
14526;SDS011;7350;51.208;4.238;2023-04-08T05:27:20;3.92;;;2.00;;
14526;SDS011;7350;51.208;4.238;2023-04-08T05:29:47;3.60;;;1.90;;
14526;SDS011;7350;51.208;4.238;2023-04-08T05:32:13;4.20;;;1.80;;
14526;SDS011;7350;51.208;4.238;2023-04-08T05:34:41;2.65;;;1.80;;
14526;SDS011;7350;51.208;4.238;2023-04-08T05:37:08;2.45;;;1.70;;
14526;SDS011;7350;51.208;4.238;2023-04-08T05:39:36;2.88;;;1.75;;
14526;SDS011;7350;51.208;4.238;2023-04-08T05:42:03;4.10;;;1.60;;
14526;SDS011;7350;51.208;4.238;2023-04-08T05:44:30;4.00;;;1.75;;
14526;SDS011;7350;51.208;4.238;2023-04-08T05:46:57;4.82;;;1.70;;
14526;SDS011;7350;51.208;4.238;2023-04-08T05:49:24;3.28;;;1.77;;
14526;SDS011;7350;51.208;4.238;2023-04-08T05:51:51;4.97;;;1.70;;
14526;SDS011;7350;51.208;4.238;2023-04-08T05:54:18;3.72;;;1.52;;
14526;SDS011;7350;51.208;4.238;2023-04-08T05:56:46;2.67;;;1.52;;
14526;SDS011;7350;51.208;4.238;2023-04-08T05:59:18;2.47;;;1.48;;
14526;SDS011;7350;51.208;4.238;2023-04-08T06:01:45;2.13;;;1.40;;
14526;SDS011;7350;51.208;4.238;2023-04-08T06:04:12;2.75;;;1.40;;
14526;SDS011;7350;51.208;4.238;2023-04-08T06:06:41;4.70;;;1.60;;
14526;SDS011;7350;51.208;4.238;2023-04-08T06:09:08;3.53;;;1.73;;
14526;SDS011;7350;51.208;4.238;2023-04-08T06:11:35;2.22;;;1.50;;
14526;SDS011;7350;51.208;4.238;2023-04-08T06:14:03;3.92;;;1.80;;
14526;SDS011;7350;51.208;4.238;2023-04-08T06:16:30;1.90;;;1.40;;
14526;SDS011;7350;51.208;4.238;2023-04-08T06:18:57;3.22;;;1.88;;
14526;SDS011;7350;51.208;4.238;2023-04-08T06:21:24;2.45;;;1.77;;
14526;SDS011;7350;51.208;4.238;2023-04-08T06:23:51;3.20;;;1.55;;
14526;SDS011;7350;51.208;4.238;2023-04-08T06:26:18;4.15;;;1.67;;
14526;SDS011;7350;51.208;4.238;2023-04-08T06:28:45;4.95;;;2.03;;
14526;SDS011;7350;51.208;4.238;2023-04-08T06:31:14;4.30;;;1.77;;
14526;SDS011;7350;51.208;4.238;2023-04-08T06:33:40;2.72;;;1.73;;
14526;SDS011;7350;51.208;4.238;2023-04-08T06:36:07;3.28;;;1.92;;
14526;SDS011;7350;51.208;4.238;2023-04-08T06:38:35;9.13;;;2.40;;
14526;SDS011;7350;51.208;4.238;2023-04-08T06:41:02;4.80;;;1.80;;
14526;SDS011;7350;51.208;4.238;2023-04-08T06:43:29;2.75;;;1.98;;
14526;SDS011;7350;51.208;4.238;2023-04-08T06:45:56;5.65;;;1.98;;
14526;SDS011;7350;51.208;4.238;2023-04-08T06:48:24;5.78;;;2.28;;
14526;SDS011;7350;51.208;4.238;2023-04-08T06:50:54;3.22;;;1.60;;
14526;SDS011;7350;51.208;4.238;2023-04-08T06:53:21;4.38;;;2.08;;
14526;SDS011;7350;51.208;4.238;2023-04-08T06:55:49;3.63;;;1.92;;
14526;SDS011;7350;51.208;4.238;2023-04-08T06:58:16;6.35;;;1.95;;
14526;SDS011;7350;51.208;4.238;2023-04-08T07:00:43;4.22;;;2.20;;
14526;SDS011;7350;51.208;4.238;2023-04-08T07:03:11;4.38;;;1.92;;
14526;SDS011;7350;51.208;4.238;2023-04-08T07:05:39;4.10;;;1.80;;
14526;SDS011;7350;51.208;4.238;2023-04-08T07:08:07;3.20;;;2.00;;
14526;SDS011;7350;51.208;4.238;2023-04-08T07:10:34;3.25;;;2.20;;
14526;SDS011;7350;51.208;4.238;2023-04-08T07:13:01;3.40;;;2.50;;
14526;SDS011;7350;51.208;4.238;2023-04-08T07:15:28;4.20;;;2.25;;
14526;SDS011;7350;51.208;4.238;2023-04-08T07:17:55;2.85;;;1.90;;
14526;SDS011;7350;51.208;4.238;2023-04-08T07:20:22;5.05;;;2.42;;
14526;SDS011;7350;51.208;4.238;2023-04-08T07:22:51;3.50;;;2.17;;
14526;SDS011;7350;51.208;4.238;2023-04-08T07:25:18;3.53;;;2.42;;
14526;SDS011;7350;51.208;4.238;2023-04-08T07:27:45;3.40;;;2.45;;
14526;SDS011;7350;51.208;4.238;2023-04-08T07:30:12;4.05;;;2.05;;
14526;SDS011;7350;51.208;4.238;2023-04-08T07:32:39;3.58;;;2.13;;
14526;SDS011;7350;51.208;4.238;2023-04-08T07:35:06;5.25;;;2.25;;
14526;SDS011;7350;51.208;4.238;2023-04-08T07:37:33;2.85;;;2.00;;
14526;SDS011;7350;51.208;4.238;2023-04-08T07:40:01;3.80;;;2.30;;
14526;SDS011;7350;51.208;4.238;2023-04-08T07:42:29;4.63;;;2.80;;
14526;SDS011;7350;51.208;4.238;2023-04-08T07:44:56;5.45;;;2.30;;
14526;SDS011;7350;51.208;4.238;2023-04-08T07:47:22;5.10;;;2.50;;
14526;SDS011;7350;51.208;4.238;2023-04-08T07:49:49;4.10;;;2.60;;
14526;SDS011;7350;51.208;4.238;2023-04-08T07:52:16;4.88;;;2.80;;
14526;SDS011;7350;51.208;4.238;2023-04-08T07:54:43;5.78;;;3.47;;
14526;SDS011;7350;51.208;4.238;2023-04-08T07:57:11;5.53;;;3.47;;
14526;SDS011;7350;51.208;4.238;2023-04-08T07:59:38;5.28;;;3.90;;
14526;SDS011;7350;51.208;4.238;2023-04-08T08:02:05;7.72;;;4.75;;
14526;SDS011;7350;51.208;4.238;2023-04-08T08:04:35;9.18;;;5.55;;
14526;SDS011;7350;51.208;4.238;2023-04-08T08:07:02;8.25;;;5.18;;
14526;SDS011;7350;51.208;4.238;2023-04-08T08:09:29;7.72;;;5.85;;
14526;SDS011;7350;51.208;4.238;2023-04-08T08:11:56;7.78;;;6.03;;
14526;SDS011;7350;51.208;4.238;2023-04-08T08:14:25;8.68;;;6.72;;
14526;SDS011;7350;51.208;4.238;2023-04-08T08:16:53;9.20;;;7.00;;
14526;SDS011;7350;51.208;4.238;2023-04-08T08:19:20;10.32;;;7.68;;
14526;SDS011;7350;51.208;4.238;2023-04-08T08:21:48;8.43;;;6.70;;
14526;SDS011;7350;51.208;4.238;2023-04-08T08:24:15;10.63;;;8.23;;
14526;SDS011;7350;51.208;4.238;2023-04-08T08:26:42;7.63;;;6.72;;
14526;SDS011;7350;51.208;4.238;2023-04-08T08:29:11;7.97;;;6.57;;
14526;SDS011;7350;51.208;4.238;2023-04-08T08:31:39;8.38;;;6.45;;
14526;SDS011;7350;51.208;4.238;2023-04-08T08:34:06;10.15;;;7.18;;
14526;SDS011;7350;51.208;4.238;2023-04-08T08:36:33;8.32;;;6.55;;
14526;SDS011;7350;51.208;4.238;2023-04-08T08:39:00;9.15;;;6.85;;
14526;SDS011;7350;51.208;4.238;2023-04-08T08:41:31;7.97;;;6.70;;
14526;SDS011;7350;51.208;4.238;2023-04-08T08:43:59;9.38;;;6.80;;
14526;SDS011;7350;51.208;4.238;2023-04-08T08:46:28;7.40;;;6.63;;
14526;SDS011;7350;51.208;4.238;2023-04-08T08:48:58;7.70;;;6.28;;
14526;SDS011;7350;51.208;4.238;2023-04-08T08:51:25;7.07;;;6.38;;
14526;SDS011;7350;51.208;4.238;2023-04-08T08:53:53;7.30;;;6.25;;
14526;SDS011;7350;51.208;4.238;2023-04-08T08:56:20;8.98;;;6.45;;
14526;SDS011;7350;51.208;4.238;2023-04-08T08:58:47;10.35;;;6.38;;
14526;SDS011;7350;51.208;4.238;2023-04-08T09:01:30;9.75;;;6.50;;
14526;SDS011;7350;51.208;4.238;2023-04-08T09:04:16;9.75;;;6.20;;
14526;SDS011;7350;51.208;4.238;2023-04-08T09:06:44;6.75;;;5.97;;
14526;SDS011;7350;51.208;4.238;2023-04-08T09:09:12;8.73;;;6.32;;
14526;SDS011;7350;51.208;4.238;2023-04-08T09:11:40;7.43;;;5.78;;
14526;SDS011;7350;51.208;4.238;2023-04-08T09:14:18;7.07;;;5.75;;
14526;SDS011;7350;51.208;4.238;2023-04-08T09:16:46;8.15;;;6.32;;
14526;SDS011;7350;51.208;4.238;2023-04-08T09:19:14;7.00;;;5.97;;
14526;SDS011;7350;51.208;4.238;2023-04-08T09:21:41;8.25;;;6.60;;
14526;SDS011;7350;51.208;4.238;2023-04-08T09:24:09;9.30;;;6.70;;
14526;SDS011;7350;51.208;4.238;2023-04-08T09:26:53;9.27;;;6.60;;
14526;SDS011;7350;51.208;4.238;2023-04-08T09:29:20;7.65;;;6.38;;
14526;SDS011;7350;51.208;4.238;2023-04-08T09:31:52;8.15;;;6.25;;
14526;SDS011;7350;51.208;4.238;2023-04-08T09:34:21;9.75;;;7.15;;
14526;SDS011;7350;51.208;4.238;2023-04-08T09:36:48;9.00;;;6.88;;
14526;SDS011;7350;51.208;4.238;2023-04-08T09:39:15;8.18;;;7.15;;
14526;SDS011;7350;51.208;4.238;2023-04-08T09:41:43;7.22;;;6.53;;
14526;SDS011;7350;51.208;4.238;2023-04-08T09:44:13;10.10;;;7.03;;
14526;SDS011;7350;51.208;4.238;2023-04-08T09:46:45;10.23;;;7.80;;
14526;SDS011;7350;51.208;4.238;2023-04-08T09:49:24;8.63;;;7.75;;
14526;SDS011;7350;51.208;4.238;2023-04-08T09:51:53;9.13;;;8.10;;
14526;SDS011;7350;51.208;4.238;2023-04-08T09:54:26;10.18;;;7.93;;
14526;SDS011;7350;51.208;4.238;2023-04-08T09:57:04;8.60;;;7.70;;
14526;SDS011;7350;51.208;4.238;2023-04-08T09:59:35;10.27;;;8.63;;
14526;SDS011;7350;51.208;4.238;2023-04-08T10:02:04;8.93;;;8.10;;
14526;SDS011;7350;51.208;4.238;2023-04-08T10:04:37;8.98;;;8.05;;
14526;SDS011;7350;51.208;4.238;2023-04-08T10:07:07;9.65;;;8.68;;
14526;SDS011;7350;51.208;4.238;2023-04-08T10:09:34;9.60;;;8.63;;
14526;SDS011;7350;51.208;4.238;2023-04-08T10:12:03;9.98;;;8.45;;
14526;SDS011;7350;51.208;4.238;2023-04-08T10:14:30;10.43;;;9.32;;
14526;SDS011;7350;51.208;4.238;2023-04-08T10:19:53;12.23;;;8.38;;
14526;SDS011;7350;51.208;4.238;2023-04-08T10:25:27;9.90;;;8.85;;
14526;SDS011;7350;51.208;4.238;2023-04-08T10:27:55;10.38;;;7.63;;
14526;SDS011;7350;51.208;4.238;2023-04-08T10:33:09;7.95;;;7.15;;
14526;SDS011;7350;51.208;4.238;2023-04-08T10:35:39;10.32;;;6.82;;
14526;SDS011;7350;51.208;4.238;2023-04-08T10:38:11;9.50;;;6.30;;
14526;SDS011;7350;51.208;4.238;2023-04-08T10:40:38;8.30;;;7.50;;
14526;SDS011;7350;51.208;4.238;2023-04-08T10:43:07;10.98;;;6.93;;
14526;SDS011;7350;51.208;4.238;2023-04-08T10:45:35;10.10;;;5.80;;
14526;SDS011;7350;51.208;4.238;2023-04-08T10:48:15;6.55;;;5.85;;
14526;SDS011;7350;51.208;4.238;2023-04-08T10:50:45;10.05;;;6.63;;
14526;SDS011;7350;51.208;4.238;2023-04-08T10:53:22;8.57;;;6.45;;
14526;SDS011;7350;51.208;4.238;2023-04-08T10:55:53;7.18;;;6.07;;
14526;SDS011;7350;51.208;4.238;2023-04-08T10:58:20;7.95;;;6.28;;
14526;SDS011;7350;51.208;4.238;2023-04-08T11:00:47;8.85;;;6.43;;
14526;SDS011;7350;51.208;4.238;2023-04-08T11:03:14;12.65;;;6.00;;
14526;SDS011;7350;51.208;4.238;2023-04-08T11:05:41;7.93;;;6.07;;
14526;SDS011;7350;51.208;4.238;2023-04-08T11:08:09;7.88;;;6.18;;
14526;SDS011;7350;51.208;4.238;2023-04-08T11:10:37;6.65;;;5.97;;
14526;SDS011;7350;51.208;4.238;2023-04-08T11:13:05;7.22;;;5.97;;
14526;SDS011;7350;51.208;4.238;2023-04-08T11:15:34;6.47;;;5.40;;
14526;SDS011;7350;51.208;4.238;2023-04-08T11:18:01;9.23;;;5.78;;
14526;SDS011;7350;51.208;4.238;2023-04-08T11:20:30;6.05;;;5.45;;
14526;SDS011;7350;51.208;4.238;2023-04-08T11:23:00;6.35;;;5.70;;
14526;SDS011;7350;51.208;4.238;2023-04-08T11:25:28;7.50;;;6.70;;
14526;SDS011;7350;51.208;4.238;2023-04-08T11:27:56;10.27;;;9.13;;
14526;SDS011;7350;51.208;4.238;2023-04-08T11:30:24;9.70;;;8.80;;
14526;SDS011;7350;51.208;4.238;2023-04-08T11:32:52;9.70;;;8.70;;
14526;SDS011;7350;51.208;4.238;2023-04-08T11:35:19;9.40;;;7.65;;
14526;SDS011;7350;51.208;4.238;2023-04-08T11:37:46;8.98;;;8.07;;
14526;SDS011;7350;51.208;4.238;2023-04-08T11:40:18;9.38;;;8.00;;
14526;SDS011;7350;51.208;4.238;2023-04-08T11:42:49;8.43;;;7.35;;
14526;SDS011;7350;51.208;4.238;2023-04-08T11:45:17;9.90;;;7.20;;
14526;SDS011;7350;51.208;4.238;2023-04-08T11:47:45;8.98;;;7.40;;
14526;SDS011;7350;51.208;4.238;2023-04-08T11:50:12;7.95;;;7.15;;
14526;SDS011;7350;51.208;4.238;2023-04-08T11:52:48;8.05;;;7.03;;
14526;SDS011;7350;51.208;4.238;2023-04-08T11:55:23;8.27;;;7.00;;
14526;SDS011;7350;51.208;4.238;2023-04-08T11:57:53;7.88;;;6.90;;
14526;SDS011;7350;51.208;4.238;2023-04-08T12:00:21;8.05;;;6.78;;
14526;SDS011;7350;51.208;4.238;2023-04-08T12:02:49;8.82;;;6.75;;
14526;SDS011;7350;51.208;4.238;2023-04-08T12:05:17;7.63;;;6.50;;
14526;SDS011;7350;51.208;4.238;2023-04-08T12:07:44;7.20;;;6.50;;
14526;SDS011;7350;51.208;4.238;2023-04-08T12:10:11;7.93;;;7.13;;
14526;SDS011;7350;51.208;4.238;2023-04-08T12:12:39;7.78;;;6.57;;
14526;SDS011;7350;51.208;4.238;2023-04-08T12:15:08;9.00;;;6.78;;
14526;SDS011;7350;51.208;4.238;2023-04-08T12:17:36;7.70;;;6.95;;
14526;SDS011;7350;51.208;4.238;2023-04-08T12:20:04;8.32;;;6.50;;
14526;SDS011;7350;51.208;4.238;2023-04-08T12:22:31;7.75;;;6.45;;
14526;SDS011;7350;51.208;4.238;2023-04-08T12:24:58;7.10;;;6.28;;
14526;SDS011;7350;51.208;4.238;2023-04-08T12:27:27;7.32;;;6.57;;
14526;SDS011;7350;51.208;4.238;2023-04-08T12:29:54;6.82;;;6.13;;
14526;SDS011;7350;51.208;4.238;2023-04-08T12:32:23;6.85;;;6.15;;
14526;SDS011;7350;51.208;4.238;2023-04-08T12:34:50;6.93;;;6.15;;
14526;SDS011;7350;51.208;4.238;2023-04-08T12:37:17;7.95;;;6.60;;
14526;SDS011;7350;51.208;4.238;2023-04-08T12:39:44;7.03;;;5.82;;
14526;SDS011;7350;51.208;4.238;2023-04-08T12:42:11;8.23;;;6.50;;
14526;SDS011;7350;51.208;4.238;2023-04-08T12:44:38;6.70;;;6.00;;
14526;SDS011;7350;51.208;4.238;2023-04-08T12:47:05;10.00;;;6.38;;
14526;SDS011;7350;51.208;4.238;2023-04-08T12:49:34;6.93;;;6.10;;
14526;SDS011;7350;51.208;4.238;2023-04-08T12:52:01;6.57;;;5.97;;
14526;SDS011;7350;51.208;4.238;2023-04-08T12:54:28;7.00;;;5.70;;
14526;SDS011;7350;51.208;4.238;2023-04-08T12:56:55;6.85;;;5.63;;
14526;SDS011;7350;51.208;4.238;2023-04-08T12:59:22;6.55;;;5.95;;
14526;SDS011;7350;51.208;4.238;2023-04-08T13:01:49;6.90;;;6.22;;
14526;SDS011;7350;51.208;4.238;2023-04-08T13:04:16;6.85;;;5.82;;
14526;SDS011;7350;51.208;4.238;2023-04-08T13:06:45;6.13;;;5.30;;
14526;SDS011;7350;51.208;4.238;2023-04-08T13:09:12;6.07;;;5.47;;
14526;SDS011;7350;51.208;4.238;2023-04-08T13:11:39;6.65;;;5.80;;
14526;SDS011;7350;51.208;4.238;2023-04-08T13:14:06;5.57;;;5.07;;
14526;SDS011;7350;51.208;4.238;2023-04-08T13:16:33;7.18;;;5.45;;
14526;SDS011;7350;51.208;4.238;2023-04-08T13:19:00;5.82;;;5.22;;
14526;SDS011;7350;51.208;4.238;2023-04-08T13:21:27;6.07;;;5.45;;
14526;SDS011;7350;51.208;4.238;2023-04-08T13:23:55;6.03;;;5.40;;
14526;SDS011;7350;51.208;4.238;2023-04-08T13:26:22;5.93;;;5.43;;
14526;SDS011;7350;51.208;4.238;2023-04-08T13:28:49;6.00;;;5.40;;
14526;SDS011;7350;51.208;4.238;2023-04-08T13:31:16;5.57;;;4.85;;
14526;SDS011;7350;51.208;4.238;2023-04-08T13:33:43;5.70;;;5.13;;
14526;SDS011;7350;51.208;4.238;2023-04-08T13:36:10;5.75;;;5.22;;
14526;SDS011;7350;51.208;4.238;2023-04-08T13:38:37;5.28;;;4.50;;
14526;SDS011;7350;51.208;4.238;2023-04-08T13:41:06;5.40;;;4.90;;
14526;SDS011;7350;51.208;4.238;2023-04-08T13:43:32;5.78;;;5.18;;
14526;SDS011;7350;51.208;4.238;2023-04-08T13:46:00;5.80;;;4.70;;
14526;SDS011;7350;51.208;4.238;2023-04-08T13:48:26;6.45;;;5.85;;
14526;SDS011;7350;51.208;4.238;2023-04-08T13:50:53;5.97;;;5.47;;
14526;SDS011;7350;51.208;4.238;2023-04-08T13:53:20;5.75;;;5.15;;
14526;SDS011;7350;51.208;4.238;2023-04-08T13:55:47;5.68;;;5.10;;
14526;SDS011;7350;51.208;4.238;2023-04-08T13:58:20;4.72;;;4.32;;
14526;SDS011;7350;51.208;4.238;2023-04-08T14:00:47;5.25;;;4.75;;
14526;SDS011;7350;51.208;4.238;2023-04-08T14:03:15;5.07;;;4.63;;
14526;SDS011;7350;51.208;4.238;2023-04-08T14:05:42;6.72;;;4.72;;
14526;SDS011;7350;51.208;4.238;2023-04-08T14:08:10;5.55;;;4.50;;
14526;SDS011;7350;51.208;4.238;2023-04-08T14:10:37;5.55;;;4.95;;
14526;SDS011;7350;51.208;4.238;2023-04-08T14:13:04;4.90;;;4.40;;
14526;SDS011;7350;51.208;4.238;2023-04-08T14:15:33;6.15;;;4.65;;
14526;SDS011;7350;51.208;4.238;2023-04-08T14:18:00;4.68;;;4.18;;
14526;SDS011;7350;51.208;4.238;2023-04-08T14:20:27;4.80;;;4.40;;
14526;SDS011;7350;51.208;4.238;2023-04-08T14:22:54;5.03;;;4.53;;
14526;SDS011;7350;51.208;4.238;2023-04-08T14:25:21;5.18;;;4.50;;
14526;SDS011;7350;51.208;4.238;2023-04-08T14:27:48;5.88;;;4.68;;
14526;SDS011;7350;51.208;4.238;2023-04-08T14:30:15;4.97;;;4.40;;
14526;SDS011;7350;51.208;4.238;2023-04-08T14:32:43;4.47;;;4.07;;
14526;SDS011;7350;51.208;4.238;2023-04-08T14:35:10;5.40;;;4.90;;
14526;SDS011;7350;51.208;4.238;2023-04-08T14:37:37;5.22;;;4.72;;
14526;SDS011;7350;51.208;4.238;2023-04-08T14:40:05;5.07;;;4.57;;
14526;SDS011;7350;51.208;4.238;2023-04-08T14:42:32;4.85;;;4.45;;
14526;SDS011;7350;51.208;4.238;2023-04-08T14:44:59;4.82;;;4.43;;
14526;SDS011;7350;51.208;4.238;2023-04-08T14:47:27;4.75;;;4.35;;
14526;SDS011;7350;51.208;4.238;2023-04-08T14:49:56;5.07;;;4.57;;
14526;SDS011;7350;51.208;4.238;2023-04-08T14:52:23;5.18;;;4.68;;
14526;SDS011;7350;51.208;4.238;2023-04-08T14:54:50;4.82;;;4.40;;
14526;SDS011;7350;51.208;4.238;2023-04-08T14:57:17;4.60;;;4.20;;
14526;SDS011;7350;51.208;4.238;2023-04-08T14:59:44;4.85;;;4.45;;
14526;SDS011;7350;51.208;4.238;2023-04-08T15:02:12;4.78;;;4.38;;
14526;SDS011;7350;51.208;4.238;2023-04-08T15:04:39;4.82;;;4.43;;
14526;SDS011;7350;51.208;4.238;2023-04-08T15:07:07;5.40;;;4.90;;
14526;SDS011;7350;51.208;4.238;2023-04-08T15:09:34;4.53;;;4.13;;
14526;SDS011;7350;51.208;4.238;2023-04-08T15:12:01;4.95;;;4.45;;
14526;SDS011;7350;51.208;4.238;2023-04-08T15:14:29;4.72;;;4.32;;